createdAt,value
2022-12-27T00:00:25.232Z,8.27
2022-12-27T00:03:13.253Z,8.27
2022-12-27T00:05:45.782Z,8.28
2022-12-27T00:08:14.410Z,8.25
2022-12-27T00:10:42.252Z,8.28
2022-12-27T00:13:10.656Z,8.29
2022-12-27T00:15:38.704Z,8.31
2022-12-27T00:18:06.621Z,8.29
2022-12-27T00:20:34.392Z,8.31
2022-12-27T00:23:02.393Z,8.31
2022-12-27T00:25:30.339Z,8.31
2022-12-27T00:27:58.289Z,8.31
2022-12-27T00:30:26.210Z,8.32
2022-12-27T00:32:54.115Z,8.29
2022-12-27T00:35:22.113Z,8.26
2022-12-27T00:37:49.978Z,8.24
2022-12-27T00:40:17.719Z,8.25
2022-12-27T00:42:45.577Z,8.24
2022-12-27T00:45:13.317Z,8.23
2022-12-27T00:47:41.224Z,8.22
2022-12-27T00:50:09.330Z,8.24
2022-12-27T00:52:37.091Z,8.25
2022-12-27T00:55:05.735Z,8.25
2022-12-27T00:57:33.611Z,8.26
2022-12-27T01:00:07.943Z,8.27
2022-12-27T01:02:37.993Z,8.31
2022-12-27T01:05:06.696Z,8.33
2022-12-27T01:07:34.812Z,8.33
2022-12-27T01:10:02.919Z,8.36
2022-12-27T01:12:30.838Z,8.39
2022-12-27T01:14:58.566Z,8.44
2022-12-27T01:17:26.360Z,8.48
2022-12-27T01:19:54.331Z,8.51
2022-12-27T01:22:22.326Z,8.52
2022-12-27T01:24:50.375Z,8.57
2022-12-27T01:27:18.200Z,8.63
2022-12-27T01:29:46.623Z,8.68
2022-12-27T01:32:14.592Z,8.72
2022-12-27T01:34:42.474Z,8.72
2022-12-27T01:37:10.288Z,8.74
2022-12-27T01:39:38.417Z,8.75
2022-12-27T01:42:29.568Z,8.75
2022-12-27T01:44:58.254Z,8.74
2022-12-27T01:47:31.635Z,8.73
2022-12-27T01:50:17.919Z,8.72
2022-12-27T01:52:55.087Z,8.71
2022-12-27T01:55:32.408Z,8.71
2022-12-27T01:58:36.607Z,8.68
2022-12-27T02:01:07.591Z,8.66
2022-12-27T02:03:39.749Z,8.66
2022-12-27T02:06:11.259Z,8.64
2022-12-27T02:08:42.651Z,8.64
2022-12-27T02:11:13.816Z,8.61
2022-12-27T02:13:44.597Z,8.58
2022-12-27T02:16:18.347Z,8.54
2022-12-27T02:18:47.230Z,8.51
2022-12-27T02:21:21.283Z,8.48
2022-12-27T02:24:13.253Z,8.48
2022-12-27T02:27:02.724Z,8.49
2022-12-27T02:29:37.320Z,8.48
2022-12-27T02:32:11.723Z,8.48
2022-12-27T02:34:58.398Z,8.48
2022-12-27T02:37:32.321Z,8.50
2022-12-27T02:40:22.847Z,8.51
2022-12-27T02:43:12.075Z,8.50
2022-12-27T02:46:02.738Z,8.54
2022-12-27T02:48:49.844Z,8.53
2022-12-27T02:52:01.139Z,8.51
2022-12-27T02:55:08.617Z,8.47
2022-12-27T02:58:01.537Z,8.43
2022-12-27T03:01:05.249Z,8.42
2022-12-27T03:03:49.487Z,8.46
2022-12-27T03:06:39.268Z,8.49
2022-12-27T03:09:51.243Z,8.50
2022-12-27T03:12:48.056Z,8.48
2022-12-27T03:15:50.139Z,8.44
2022-12-27T03:18:25.648Z,8.40
2022-12-27T03:21:15.891Z,8.35
2022-12-27T03:24:05.283Z,8.31
2022-12-27T03:26:36.997Z,8.31
2022-12-27T03:29:26.460Z,8.33
2022-12-27T03:32:17.906Z,8.35
2022-12-27T03:34:53.544Z,8.34
2022-12-27T03:37:46.436Z,8.34
2022-12-27T03:41:06.483Z,8.32
2022-12-27T03:43:36.873Z,8.29
2022-12-27T03:46:35.923Z,8.27
2022-12-27T03:49:11.814Z,8.23
2022-12-27T03:51:56.137Z,8.21
2022-12-27T03:54:32.460Z,8.18
2022-12-27T03:57:08.470Z,8.11
2022-12-27T03:59:36.679Z,8.07
2022-12-27T04:02:05.783Z,8.00
2022-12-27T04:04:34.407Z,7.94
2022-12-27T04:07:02.624Z,7.87
2022-12-27T04:09:49.459Z,7.80
2022-12-27T04:12:36.714Z,7.69
2022-12-27T04:15:24.014Z,7.62
2022-12-27T04:18:10.853Z,7.56
2022-12-27T04:20:58.100Z,7.50
2022-12-27T04:23:44.574Z,7.44
2022-12-27T04:26:31.280Z,7.40
2022-12-27T04:29:17.931Z,7.37
2022-12-27T04:32:04.677Z,7.33
2022-12-27T04:34:44.243Z,7.25
2022-12-27T04:37:20.219Z,7.17
2022-12-27T04:40:07.460Z,7.10
2022-12-27T04:42:54.333Z,7.04
2022-12-27T04:45:41.096Z,6.99
2022-12-27T04:48:33.067Z,6.93
2022-12-27T04:51:19.778Z,6.91
2022-12-27T04:54:06.465Z,6.88
2022-12-27T04:56:34.394Z,6.84
2022-12-27T04:59:21.094Z,6.81
2022-12-27T05:02:04.788Z,6.78
2022-12-27T05:04:36.989Z,6.76
2022-12-27T05:07:27.191Z,6.73
2022-12-27T05:10:14.492Z,6.69
2022-12-27T05:13:01.182Z,6.65
2022-12-27T05:15:29.230Z,6.64
2022-12-27T05:17:58.087Z,6.65
2022-12-27T05:20:26.024Z,6.63
2022-12-27T05:23:12.813Z,6.61
2022-12-27T05:25:41.940Z,6.59
2022-12-27T05:28:11.931Z,6.57
2022-12-27T05:30:42.333Z,6.53
2022-12-27T05:33:11.150Z,6.48
2022-12-27T05:35:39.452Z,6.42
2022-12-27T05:38:07.919Z,6.39
2022-12-27T05:40:36.329Z,6.38
2022-12-27T05:43:04.500Z,6.38
2022-12-27T05:45:32.992Z,6.36
2022-12-27T05:48:00.920Z,6.33
2022-12-27T05:50:28.953Z,6.28
2022-12-27T05:53:11.719Z,6.17
2022-12-27T05:55:40.301Z,6.08
2022-12-27T05:58:08.194Z,6.00
2022-12-27T06:00:36.203Z,5.94
2022-12-27T06:03:04.373Z,5.86
2022-12-27T06:05:32.440Z,5.80
2022-12-27T06:08:00.428Z,5.77
2022-12-27T06:10:28.410Z,5.73
2022-12-27T06:12:56.403Z,5.66
2022-12-27T06:15:24.647Z,5.60
2022-12-27T06:17:52.750Z,5.56
2022-12-27T06:20:21.884Z,5.56
2022-12-27T06:22:49.785Z,5.58
2022-12-27T06:25:17.782Z,5.60
2022-12-27T06:27:46.096Z,5.65
2022-12-27T06:30:15.475Z,5.67
2022-12-27T06:32:43.375Z,5.66
2022-12-27T06:35:11.367Z,5.65
2022-12-27T06:37:39.513Z,5.68
2022-12-27T06:40:07.830Z,5.68
2022-12-27T06:42:35.823Z,5.66
2022-12-27T06:45:04.024Z,5.66
2022-12-27T06:47:32.281Z,5.62
2022-12-27T06:50:00.223Z,5.60
2022-12-27T06:52:28.301Z,5.61
2022-12-27T06:54:56.291Z,5.62
2022-12-27T06:57:24.446Z,5.59
2022-12-27T06:59:54.141Z,5.52
2022-12-27T07:02:22.628Z,5.46
2022-12-27T07:04:50.667Z,5.38
2022-12-27T07:07:18.540Z,5.29
2022-12-27T07:09:46.613Z,5.21
2022-12-27T07:12:14.569Z,5.15
2022-12-27T07:14:42.538Z,5.09
2022-12-27T07:17:10.483Z,5.08
2022-12-27T07:19:38.598Z,5.08
2022-12-27T07:22:06.663Z,5.07
2022-12-27T07:24:34.593Z,5.10
2022-12-27T07:27:03.116Z,5.14
2022-12-27T07:29:31.497Z,5.15
2022-12-27T07:31:59.503Z,5.13
2022-12-27T07:34:27.513Z,5.14
2022-12-27T07:36:55.593Z,5.14
2022-12-27T07:39:23.536Z,5.16
2022-12-27T07:41:51.906Z,5.20
2022-12-27T07:44:19.951Z,5.24
2022-12-27T07:46:47.959Z,5.27
2022-12-27T07:49:18.086Z,5.27
2022-12-27T07:51:46.341Z,5.28
2022-12-27T07:54:14.302Z,5.34
2022-12-27T07:56:42.962Z,5.37
2022-12-27T07:59:13.204Z,5.40
2022-12-27T08:02:00.163Z,5.41
2022-12-27T08:04:29.106Z,5.38
2022-12-27T08:07:03.264Z,5.34
2022-12-27T08:09:35.330Z,5.32
2022-12-27T08:12:03.801Z,5.31
2022-12-27T08:14:31.826Z,5.32
2022-12-27T08:17:05.792Z,5.36
2022-12-27T08:19:34.333Z,5.52
2022-12-27T08:22:02.311Z,5.87
2022-12-27T08:24:30.315Z,6.30
2022-12-27T08:26:58.418Z,6.69
2022-12-27T08:29:26.348Z,6.85
2022-12-27T08:31:54.398Z,6.84
2022-12-27T08:34:22.373Z,6.75
2022-12-27T08:36:56.262Z,6.65
2022-12-27T08:39:24.723Z,6.49
2022-12-27T08:41:54.346Z,6.34
2022-12-27T08:44:22.766Z,6.23
2022-12-27T08:46:50.751Z,6.16
2022-12-27T08:50:25.644Z,6.14
2022-12-27T08:52:56.668Z,6.25
2022-12-27T08:55:26.420Z,6.70
2022-12-27T08:58:03.060Z,7.17
2022-12-27T09:00:32.362Z,7.44
2022-12-27T09:03:00.466Z,7.64
2022-12-27T09:05:30.147Z,8.11
2022-12-27T09:07:59.018Z,8.61
2022-12-27T09:10:27.599Z,9.24
2022-12-27T09:12:55.577Z,9.93
2022-12-27T09:15:23.581Z,10.69
2022-12-27T09:17:51.501Z,11.37
2022-12-27T09:20:19.523Z,12.05
2022-12-27T09:22:47.624Z,12.57
2022-12-27T09:25:15.810Z,12.54
2022-12-27T09:27:44.026Z,12.42
2022-12-27T09:30:12.369Z,12.18
2022-12-27T09:32:40.408Z,12.13
2022-12-27T09:35:08.770Z,12.26
2022-12-27T09:37:36.726Z,12.27
2022-12-27T09:40:05.185Z,12.38
2022-12-27T09:43:07.516Z,12.66
2022-12-27T09:45:45.660Z,13.16
2022-12-27T09:48:21.843Z,13.43
2022-12-27T09:50:58.341Z,13.92
2022-12-27T09:53:51.286Z,14.25
2022-12-27T09:56:54.102Z,14.12
2022-12-27T09:59:44.387Z,14.19
2022-12-27T10:02:20.309Z,14.59
2022-12-27T10:08:23.770Z,15.39
2022-12-27T10:11:04.798Z,15.85
2022-12-27T10:13:57.031Z,16.22
2022-12-27T10:16:46.427Z,16.34
2022-12-27T10:19:33.033Z,16.38
2022-12-27T10:22:33.744Z,16.82
2022-12-27T10:25:04.939Z,17.29
2022-12-27T10:27:34.160Z,17.50
2022-12-27T10:30:15.311Z,17.71
2022-12-27T10:32:47.078Z,17.83
2022-12-27T10:35:22.875Z,17.97
2022-12-27T10:37:54.068Z,18.09
2022-12-27T10:40:48.562Z,18.19
2022-12-27T10:43:33.535Z,18.12
2022-12-27T10:46:11.727Z,18.18
2022-12-27T10:49:18.947Z,18.23
2022-12-27T10:51:39.679Z,18.52
2022-12-27T10:54:15.059Z,18.65
2022-12-27T10:56:44.406Z,18.66
2022-12-27T10:59:16.634Z,18.67
2022-12-27T11:01:46.887Z,18.51
2022-12-27T11:04:21.023Z,17.69
2022-12-27T11:07:02.269Z,16.56
2022-12-27T11:09:35.039Z,15.46
2022-12-27T11:12:26.154Z,14.56
2022-12-27T11:15:11.821Z,13.78
2022-12-27T11:17:47.359Z,13.10
2022-12-27T11:20:23.929Z,12.89
2022-12-27T11:23:13.584Z,12.95
2022-12-27T11:26:01.764Z,13.25
2022-12-27T11:28:36.973Z,13.24
2022-12-27T11:31:18.142Z,12.82
2022-12-27T11:33:50.142Z,12.29
2022-12-27T11:36:29.486Z,11.78
2022-12-27T11:38:57.625Z,11.38
2022-12-27T11:41:45.007Z,11.14
2022-12-27T11:44:33.226Z,11.02
2022-12-27T11:47:42.001Z,11.10
2022-12-27T11:50:28.519Z,10.99
2022-12-27T11:53:24.073Z,11.46
2022-12-27T11:56:16.332Z,11.45
2022-12-27T11:59:03.368Z,11.21
2022-12-27T12:02:04.956Z,10.88
2022-12-27T12:05:21.488Z,10.55
2022-12-27T12:08:22.810Z,10.18
2022-12-27T12:11:24.017Z,9.87
2022-12-27T12:14:20.724Z,9.53
2022-12-27T12:17:14.326Z,9.31
2022-12-27T12:20:04.206Z,9.21
2022-12-27T12:22:58.230Z,9.16
2022-12-27T12:25:58.813Z,9.01
2022-12-27T12:29:01.388Z,8.94
2022-12-27T12:31:55.712Z,9.03
2022-12-27T12:34:48.221Z,8.90
2022-12-27T12:37:37.935Z,8.73
2022-12-27T12:40:06.956Z,8.54
2022-12-27T12:43:06.420Z,8.40
2022-12-27T12:46:10.752Z,8.31
2022-12-27T12:49:10.349Z,8.30
2022-12-27T12:51:56.096Z,8.31
2022-12-27T12:54:52.328Z,8.99
2022-12-27T12:57:44.160Z,10.32
2022-12-27T13:00:44.594Z,11.03
2022-12-27T13:03:33.526Z,11.02
2022-12-27T13:06:21.799Z,10.80
2022-12-27T13:09:13.984Z,10.24
2022-12-27T13:12:05.040Z,9.64
2022-12-27T13:15:07.110Z,9.13
2022-12-27T13:18:11.787Z,8.71
2022-12-27T13:20:48.943Z,8.39
2022-12-27T13:23:56.142Z,8.18
2022-12-27T13:26:27.105Z,7.93
2022-12-27T13:29:13.992Z,7.80
2022-12-27T13:31:45.496Z,7.71
2022-12-27T13:34:59.082Z,7.61
2022-12-27T13:37:33.173Z,7.52
2022-12-27T13:40:29.891Z,7.41
2022-12-27T13:43:25.993Z,7.37
2022-12-27T13:46:54.610Z,7.38
2022-12-27T13:49:22.542Z,7.81
2022-12-27T13:51:54.848Z,8.59
2022-12-27T13:54:29.735Z,9.18
2022-12-27T13:57:30.772Z,9.44
2022-12-27T14:00:21.089Z,9.32
2022-12-27T14:03:27.626Z,8.99
2022-12-27T14:06:21.099Z,8.56
2022-12-27T14:08:55.153Z,8.29
2022-12-27T14:11:31.285Z,8.10
2022-12-27T14:14:02.775Z,7.96
2022-12-27T14:17:04.714Z,7.86
2022-12-27T14:19:47.176Z,7.69
2022-12-27T14:22:29.723Z,7.55
2022-12-27T14:25:00.665Z,7.39
2022-12-27T14:28:11.101Z,7.25
2022-12-27T14:31:22.578Z,7.10
2022-12-27T14:34:17.566Z,6.94
2022-12-27T14:37:06.935Z,6.80
2022-12-27T14:39:52.121Z,6.69
2022-12-27T14:42:43.731Z,6.63
2022-12-27T14:45:42.059Z,6.58
2022-12-27T14:48:30.783Z,6.51
2022-12-27T14:51:59.253Z,6.41
2022-12-27T14:54:30.305Z,6.31
2022-12-27T14:57:11.658Z,6.27
2022-12-27T15:00:01.301Z,6.25
2022-12-27T15:02:50.615Z,6.22
2022-12-27T15:05:39.289Z,6.14
2022-12-27T15:08:17.493Z,6.07
2022-12-27T15:11:32.001Z,5.97
2022-12-27T15:14:19.921Z,5.84
2022-12-27T15:17:07.209Z,5.79
2022-12-27T15:19:55.183Z,5.74
2022-12-27T15:22:24.082Z,5.70
2022-12-27T15:24:59.632Z,5.67
2022-12-27T15:27:47.158Z,5.66
2022-12-27T15:30:25.317Z,5.63
2022-12-27T15:32:57.175Z,5.61
2022-12-27T15:35:46.233Z,5.61
2022-12-27T15:38:35.544Z,5.60
2022-12-27T15:41:06.602Z,5.59
2022-12-27T15:44:15.188Z,5.58
2022-12-27T15:47:05.205Z,5.55
2022-12-27T15:49:54.881Z,5.52
2022-12-27T15:52:58.670Z,5.51
2022-12-27T15:55:39.909Z,5.49
2022-12-27T15:58:26.719Z,5.49
2022-12-27T16:01:22.044Z,5.50
2022-12-27T16:03:54.060Z,5.51
2022-12-27T16:06:34.447Z,5.55
2022-12-27T16:09:25.450Z,5.57
2022-12-27T16:12:10.618Z,5.60
2022-12-27T16:14:40.900Z,5.62
2022-12-27T16:17:24.840Z,5.64
2022-12-27T16:20:11.453Z,5.66
2022-12-27T16:22:58.245Z,5.66
2022-12-27T16:25:41.419Z,5.70
2022-12-27T16:28:24.690Z,5.72
2022-12-27T16:30:55.705Z,5.70
2022-12-27T16:33:26.682Z,5.66
2022-12-27T16:36:20.298Z,5.65
2022-12-27T16:39:17.760Z,5.64
2022-12-27T16:41:54.024Z,5.65
2022-12-27T16:44:48.487Z,5.66
2022-12-27T16:47:33.429Z,5.68
2022-12-27T16:50:34.778Z,5.66
2022-12-27T16:53:34.603Z,5.66
2022-12-27T16:56:21.232Z,5.67
2022-12-27T16:58:53.375Z,5.65
2022-12-27T17:01:26.371Z,5.64
2022-12-27T17:04:04.443Z,5.62
2022-12-27T17:06:40.173Z,5.59
2022-12-27T17:09:09.281Z,5.53
2022-12-27T17:11:48.256Z,5.47
2022-12-27T17:14:25.409Z,5.39
2022-12-27T17:16:58.869Z,5.37
2022-12-27T17:19:44.359Z,5.36
2022-12-27T17:22:16.553Z,5.36
2022-12-27T17:24:47.054Z,5.36
2022-12-27T17:27:41.267Z,5.35
2022-12-27T17:30:19.318Z,5.37
2022-12-27T17:32:47.103Z,5.43
2022-12-27T17:35:29.456Z,5.49
2022-12-27T17:38:16.371Z,5.45
2022-12-27T17:40:56.932Z,5.34
2022-12-27T17:44:12.320Z,5.27
2022-12-27T17:46:55.364Z,5.25
2022-12-27T17:49:29.436Z,5.27
2022-12-27T17:52:18.611Z,5.30
2022-12-27T17:55:06.918Z,5.34
2022-12-27T17:57:54.437Z,5.34
2022-12-27T18:00:29.751Z,5.34
2022-12-27T18:03:00.771Z,5.34
2022-12-27T18:05:32.821Z,5.31
2022-12-27T18:08:07.295Z,5.24
2022-12-27T18:10:36.939Z,5.21
2022-12-27T18:13:18.825Z,5.16
2022-12-27T18:15:50.647Z,5.11
2022-12-27T18:18:30.622Z,5.09
2022-12-27T18:21:01.271Z,5.05
2022-12-27T18:23:29.686Z,4.98
2022-12-27T18:26:12.768Z,5.02
2022-12-27T18:28:42.481Z,5.05
2022-12-27T18:31:35.514Z,5.09
2022-12-27T18:34:46.175Z,5.10
2022-12-27T18:37:19.225Z,5.13
2022-12-27T18:40:00.640Z,5.08
2022-12-27T18:42:35.602Z,5.02
2022-12-27T18:45:22.848Z,4.99
2022-12-27T18:48:00.877Z,4.97
2022-12-27T18:50:32.245Z,4.97
2022-12-27T18:53:08.051Z,4.97
2022-12-27T18:55:56.988Z,4.98
2022-12-27T18:58:26.076Z,5.00
2022-12-27T19:01:26.736Z,5.02
2022-12-27T19:04:14.733Z,4.97
2022-12-27T19:06:46.000Z,4.76
2022-12-27T19:09:19.243Z,4.84
2022-12-27T19:11:53.439Z,4.77
2022-12-27T19:14:30.501Z,4.76
2022-12-27T19:17:04.123Z,4.73
2022-12-27T19:19:36.613Z,4.71
2022-12-27T19:22:30.406Z,4.62
2022-12-27T19:25:07.751Z,4.60
2022-12-27T19:27:38.001Z,4.54
2022-12-27T19:30:31.806Z,4.50
2022-12-27T19:33:01.067Z,4.49
2022-12-27T19:35:31.226Z,4.49
2022-12-27T19:38:02.283Z,4.50
2022-12-27T19:40:40.123Z,4.51
2022-12-27T19:43:10.466Z,4.49
2022-12-27T19:45:46.342Z,4.46
2022-12-27T19:48:15.506Z,4.41
2022-12-27T19:50:50.811Z,4.36
2022-12-27T19:53:32.477Z,4.35
2022-12-27T19:56:03.769Z,4.34
2022-12-27T19:58:32.812Z,4.31
2022-12-27T20:01:02.335Z,4.30
2022-12-27T20:03:36.437Z,4.28
2022-12-27T20:06:13.921Z,4.22
2022-12-27T20:08:49.627Z,4.18
2022-12-27T20:11:20.634Z,4.03
2022-12-27T20:13:49.088Z,4.11
2022-12-27T20:16:21.129Z,4.11
2022-12-27T20:18:49.406Z,4.10
2022-12-27T20:21:18.141Z,4.08
2022-12-27T20:23:49.172Z,4.07
2022-12-27T20:26:18.656Z,4.09
2022-12-27T20:29:21.043Z,4.12
2022-12-27T20:31:52.390Z,4.12
2022-12-27T20:34:20.746Z,4.10
2022-12-27T20:36:48.943Z,4.02
2022-12-27T20:39:18.202Z,4.06
2022-12-27T20:41:46.352Z,4.07
2022-12-27T20:44:25.286Z,4.07
2022-12-27T20:46:58.111Z,4.07
2022-12-27T20:49:34.271Z,4.02
2022-12-27T20:52:07.192Z,4.04
2022-12-27T20:54:35.271Z,4.03
2022-12-27T20:57:03.342Z,4.02
2022-12-27T20:59:36.357Z,4.02
2022-12-27T21:02:04.722Z,4.05
2022-12-27T21:04:38.316Z,4.08
2022-12-27T21:07:12.289Z,4.07
2022-12-27T21:09:40.293Z,4.06
2022-12-27T21:12:14.516Z,4.07
2022-12-27T21:14:47.605Z,4.08
2022-12-27T21:17:20.203Z,4.10
2022-12-27T21:19:48.128Z,4.12
2022-12-27T21:22:18.483Z,4.10
2022-12-27T21:24:47.447Z,4.06
2022-12-27T21:27:24.270Z,4.02
2022-12-27T21:29:52.106Z,4.00
2022-12-27T21:32:21.197Z,3.96
2022-12-27T21:34:50.386Z,3.94
2022-12-27T21:37:18.528Z,3.92
2022-12-27T21:39:46.546Z,3.90
2022-12-27T21:42:23.251Z,3.89
2022-12-27T21:44:56.208Z,3.88
2022-12-27T21:47:29.319Z,3.87
2022-12-27T21:49:57.382Z,3.88
2022-12-27T21:52:26.472Z,3.93
2022-12-27T21:55:03.284Z,3.97
2022-12-27T21:57:31.388Z,4.01
2022-12-27T21:59:59.495Z,4.08
2022-12-27T22:02:32.402Z,4.12
2022-12-27T22:05:00.720Z,4.14
2022-12-27T22:08:02.215Z,4.18
2022-12-27T22:10:30.161Z,4.20
2022-12-27T22:12:59.169Z,4.25
2022-12-27T22:15:28.259Z,4.25
2022-12-27T22:17:57.495Z,4.27
2022-12-27T22:20:25.527Z,4.31
2022-12-27T22:22:55.597Z,4.28
2022-12-27T22:25:28.095Z,4.20
2022-12-27T22:27:56.124Z,4.16
2022-12-27T22:30:24.392Z,4.16
2022-12-27T22:32:54.542Z,4.23
2022-12-27T22:35:23.632Z,4.24
2022-12-27T22:37:59.145Z,4.27
2022-12-27T22:40:43.235Z,4.26
2022-12-27T22:43:14.804Z,4.24
2022-12-27T22:45:53.924Z,4.30
2022-12-27T22:48:22.245Z,4.35
2022-12-27T22:50:51.626Z,4.38
2022-12-27T22:53:24.077Z,4.42
2022-12-27T22:55:54.098Z,4.45
2022-12-27T22:58:24.142Z,4.48
2022-12-27T23:00:54.255Z,4.47
2022-12-27T23:03:22.266Z,4.45
2022-12-27T23:05:59.069Z,4.39
2022-12-27T23:08:28.264Z,4.31
2022-12-27T23:11:06.553Z,4.23
2022-12-27T23:13:35.474Z,4.15
2022-12-27T23:16:05.747Z,4.09
2022-12-27T23:18:36.762Z,4.02
2022-12-27T23:21:21.408Z,3.96
2022-12-27T23:23:53.193Z,3.94
2022-12-27T23:26:23.367Z,3.93
2022-12-27T23:28:54.863Z,3.90
2022-12-27T23:31:24.604Z,3.85
2022-12-27T23:33:55.137Z,3.83
2022-12-27T23:36:31.975Z,3.83
2022-12-27T23:39:00.031Z,3.81
2022-12-27T23:41:30.134Z,3.75
2022-12-27T23:44:00.934Z,3.71
2022-12-27T23:46:33.220Z,3.69
2022-12-27T23:49:03.767Z,3.64
2022-12-27T23:51:41.341Z,3.61
2022-12-27T23:54:14.286Z,3.60
2022-12-27T23:56:46.097Z,3.58
2022-12-27T23:59:14.039Z,3.58
